sensor_id;sensor_type;location;lat;lon;timestamp;P1;durP1;ratioP1;P2;durP2;ratioP2
44987;SDS011;35735;52.226;21.254;2023-03-01T00:02:42;72.25;;;37.78;;
44987;SDS011;35735;52.226;21.254;2023-03-01T00:07:43;68.82;;;38.65;;
44987;SDS011;35735;52.226;21.254;2023-03-01T00:12:45;74.97;;;37.80;;
44987;SDS011;35735;52.226;21.254;2023-03-01T00:18:02;72.93;;;38.95;;
44987;SDS011;35735;52.226;21.254;2023-03-01T00:23:02;66.57;;;37.03;;
44987;SDS011;35735;52.226;21.254;2023-03-01T00:28:03;66.93;;;36.65;;
44987;SDS011;35735;52.226;21.254;2023-03-01T00:33:03;62.55;;;35.45;;
44987;SDS011;35735;52.226;21.254;2023-03-01T00:38:04;68.00;;;36.75;;
44987;SDS011;35735;52.226;21.254;2023-03-01T00:43:04;68.03;;;36.17;;
44987;SDS011;35735;52.226;21.254;2023-03-01T00:48:05;68.35;;;36.08;;
44987;SDS011;35735;52.226;21.254;2023-03-01T00:53:05;58.38;;;33.70;;
44987;SDS011;35735;52.226;21.254;2023-03-01T00:58:06;71.00;;;36.60;;
44987;SDS011;35735;52.226;21.254;2023-03-01T01:03:07;62.85;;;35.97;;
44987;SDS011;35735;52.226;21.254;2023-03-01T01:08:07;62.85;;;35.80;;
44987;SDS011;35735;52.226;21.254;2023-03-01T01:13:08;65.07;;;36.42;;
44987;SDS011;35735;52.226;21.254;2023-03-01T01:18:08;65.05;;;36.75;;
44987;SDS011;35735;52.226;21.254;2023-03-01T01:23:09;71.18;;;34.38;;
44987;SDS011;35735;52.226;21.254;2023-03-01T01:28:09;69.53;;;36.65;;
44987;SDS011;35735;52.226;21.254;2023-03-01T01:33:10;70.20;;;38.10;;
44987;SDS011;35735;52.226;21.254;2023-03-01T01:38:10;69.30;;;36.88;;
44987;SDS011;35735;52.226;21.254;2023-03-01T01:43:22;71.32;;;38.75;;
44987;SDS011;35735;52.226;21.254;2023-03-01T01:48:27;74.25;;;38.47;;
44987;SDS011;35735;52.226;21.254;2023-03-01T01:53:41;71.68;;;38.45;;
44987;SDS011;35735;52.226;21.254;2023-03-01T01:58:46;71.35;;;38.42;;
44987;SDS011;35735;52.226;21.254;2023-03-01T02:03:47;74.10;;;39.47;;
44987;SDS011;35735;52.226;21.254;2023-03-01T02:08:49;68.93;;;37.50;;
44987;SDS011;35735;52.226;21.254;2023-03-01T02:13:52;71.25;;;37.25;;
44987;SDS011;35735;52.226;21.254;2023-03-01T02:18:54;68.70;;;36.88;;
44987;SDS011;35735;52.226;21.254;2023-03-01T02:23:54;66.18;;;37.58;;
44987;SDS011;35735;52.226;21.254;2023-03-01T02:28:56;69.53;;;38.13;;
44987;SDS011;35735;52.226;21.254;2023-03-01T02:33:57;68.32;;;37.78;;
44987;SDS011;35735;52.226;21.254;2023-03-01T02:38:58;65.53;;;36.03;;
44987;SDS011;35735;52.226;21.254;2023-03-01T02:44:01;70.75;;;37.20;;
44987;SDS011;35735;52.226;21.254;2023-03-01T02:49:15;67.18;;;37.70;;
44987;SDS011;35735;52.226;21.254;2023-03-01T02:54:28;68.43;;;37.67;;
44987;SDS011;35735;52.226;21.254;2023-03-01T02:59:40;73.00;;;39.15;;
44987;SDS011;35735;52.226;21.254;2023-03-01T03:04:42;71.55;;;39.35;;
44987;SDS011;35735;52.226;21.254;2023-03-01T03:09:43;76.07;;;38.95;;
44987;SDS011;35735;52.226;21.254;2023-03-01T03:14:43;68.10;;;39.15;;
44987;SDS011;35735;52.226;21.254;2023-03-01T03:19:44;69.47;;;38.33;;
44987;SDS011;35735;52.226;21.254;2023-03-01T03:24:44;71.12;;;38.58;;
44987;SDS011;35735;52.226;21.254;2023-03-01T03:29:45;70.87;;;37.83;;
44987;SDS011;35735;52.226;21.254;2023-03-01T03:34:46;65.65;;;36.55;;
44987;SDS011;35735;52.226;21.254;2023-03-01T03:39:46;67.50;;;35.78;;
44987;SDS011;35735;52.226;21.254;2023-03-01T03:44:47;68.00;;;36.25;;
44987;SDS011;35735;52.226;21.254;2023-03-01T03:49:48;67.20;;;36.85;;
44987;SDS011;35735;52.226;21.254;2023-03-01T03:54:48;68.22;;;35.92;;
44987;SDS011;35735;52.226;21.254;2023-03-01T03:59:49;62.70;;;35.35;;
44987;SDS011;35735;52.226;21.254;2023-03-01T04:04:49;65.53;;;35.83;;
44987;SDS011;35735;52.226;21.254;2023-03-01T04:09:50;66.55;;;36.90;;
44987;SDS011;35735;52.226;21.254;2023-03-01T04:14:50;68.95;;;36.38;;
44987;SDS011;35735;52.226;21.254;2023-03-01T04:19:51;62.28;;;35.38;;
44987;SDS011;35735;52.226;21.254;2023-03-01T04:24:51;65.18;;;34.47;;
44987;SDS011;35735;52.226;21.254;2023-03-01T04:29:52;64.50;;;35.53;;
44987;SDS011;35735;52.226;21.254;2023-03-01T04:34:53;73.97;;;35.53;;
44987;SDS011;35735;52.226;21.254;2023-03-01T04:39:53;65.45;;;35.72;;
44987;SDS011;35735;52.226;21.254;2023-03-01T04:44:54;68.97;;;36.40;;
44987;SDS011;35735;52.226;21.254;2023-03-01T04:49:54;64.18;;;35.15;;
44987;SDS011;35735;52.226;21.254;2023-03-01T04:54:55;61.65;;;34.65;;
44987;SDS011;35735;52.226;21.254;2023-03-01T04:59:55;65.93;;;34.30;;
44987;SDS011;35735;52.226;21.254;2023-03-01T05:04:56;64.82;;;34.33;;
44987;SDS011;35735;52.226;21.254;2023-03-01T05:09:57;61.63;;;33.17;;
44987;SDS011;35735;52.226;21.254;2023-03-01T05:14:57;67.57;;;34.85;;
44987;SDS011;35735;52.226;21.254;2023-03-01T05:19:58;66.57;;;32.95;;
44987;SDS011;35735;52.226;21.254;2023-03-01T05:24:58;68.12;;;33.75;;
44987;SDS011;35735;52.226;21.254;2023-03-01T05:29:59;65.75;;;34.95;;
44987;SDS011;35735;52.226;21.254;2023-03-01T05:34:59;63.92;;;34.17;;
44987;SDS011;35735;52.226;21.254;2023-03-01T05:40:00;63.10;;;33.95;;
44987;SDS011;35735;52.226;21.254;2023-03-01T05:45:00;68.95;;;33.78;;
44987;SDS011;35735;52.226;21.254;2023-03-01T05:50:01;67.47;;;34.55;;
44987;SDS011;35735;52.226;21.254;2023-03-01T05:55:02;64.93;;;32.85;;
44987;SDS011;35735;52.226;21.254;2023-03-01T06:00:03;63.75;;;34.08;;
44987;SDS011;35735;52.226;21.254;2023-03-01T06:05:05;65.65;;;34.15;;
44987;SDS011;35735;52.226;21.254;2023-03-01T06:10:08;62.50;;;34.03;;
44987;SDS011;35735;52.226;21.254;2023-03-01T06:15:11;64.95;;;33.42;;
44987;SDS011;35735;52.226;21.254;2023-03-01T06:20:18;64.20;;;34.88;;
44987;SDS011;35735;52.226;21.254;2023-03-01T06:25:22;68.37;;;35.95;;
44987;SDS011;35735;52.226;21.254;2023-03-01T06:30:25;69.20;;;35.80;;
44987;SDS011;35735;52.226;21.254;2023-03-01T06:35:26;70.18;;;37.28;;
44987;SDS011;35735;52.226;21.254;2023-03-01T06:40:27;69.30;;;37.55;;
44987;SDS011;35735;52.226;21.254;2023-03-01T06:45:28;69.82;;;35.83;;
44987;SDS011;35735;52.226;21.254;2023-03-01T06:50:29;71.05;;;37.15;;
44987;SDS011;35735;52.226;21.254;2023-03-01T06:55:30;67.93;;;36.25;;
44987;SDS011;35735;52.226;21.254;2023-03-01T07:00:31;68.78;;;35.20;;
44987;SDS011;35735;52.226;21.254;2023-03-01T07:05:32;61.65;;;34.80;;
44987;SDS011;35735;52.226;21.254;2023-03-01T07:10:33;64.30;;;36.55;;
44987;SDS011;35735;52.226;21.254;2023-03-01T07:15:34;67.12;;;35.15;;
44987;SDS011;35735;52.226;21.254;2023-03-01T07:20:35;74.95;;;34.55;;
44987;SDS011;35735;52.226;21.254;2023-03-01T07:25:35;65.65;;;33.45;;
44987;SDS011;35735;52.226;21.254;2023-03-01T07:30:36;60.35;;;33.17;;
44987;SDS011;35735;52.226;21.254;2023-03-01T07:35:36;57.30;;;33.83;;
44987;SDS011;35735;52.226;21.254;2023-03-01T07:40:37;65.55;;;33.90;;
44987;SDS011;35735;52.226;21.254;2023-03-01T07:45:38;60.35;;;32.30;;
44987;SDS011;35735;52.226;21.254;2023-03-01T07:50:38;56.40;;;31.85;;
44987;SDS011;35735;52.226;21.254;2023-03-01T07:55:39;50.33;;;29.37;;
44987;SDS011;35735;52.226;21.254;2023-03-01T08:00:39;57.83;;;27.23;;
44987;SDS011;35735;52.226;21.254;2023-03-01T08:05:40;43.30;;;26.62;;
44987;SDS011;35735;52.226;21.254;2023-03-01T08:10:40;36.38;;;21.25;;
44987;SDS011;35735;52.226;21.254;2023-03-01T08:15:41;35.67;;;19.73;;
44987;SDS011;35735;52.226;21.254;2023-03-01T08:20:41;35.08;;;19.77;;
44987;SDS011;35735;52.226;21.254;2023-03-01T08:25:42;35.95;;;19.90;;
44987;SDS011;35735;52.226;21.254;2023-03-01T08:30:42;34.65;;;19.67;;
44987;SDS011;35735;52.226;21.254;2023-03-01T08:35:43;36.08;;;19.77;;
44987;SDS011;35735;52.226;21.254;2023-03-01T08:40:44;33.17;;;19.75;;
44987;SDS011;35735;52.226;21.254;2023-03-01T08:45:44;28.67;;;17.95;;
44987;SDS011;35735;52.226;21.254;2023-03-01T08:50:45;31.05;;;18.40;;
44987;SDS011;35735;52.226;21.254;2023-03-01T08:55:45;27.75;;;15.65;;
44987;SDS011;35735;52.226;21.254;2023-03-01T09:00:46;27.62;;;14.95;;
44987;SDS011;35735;52.226;21.254;2023-03-01T09:05:46;27.13;;;16.00;;
44987;SDS011;35735;52.226;21.254;2023-03-01T09:10:47;26.95;;;16.02;;
44987;SDS011;35735;52.226;21.254;2023-03-01T09:15:47;27.75;;;16.27;;
44987;SDS011;35735;52.226;21.254;2023-03-01T09:20:48;29.17;;;16.27;;
44987;SDS011;35735;52.226;21.254;2023-03-01T09:25:48;25.15;;;14.35;;
44987;SDS011;35735;52.226;21.254;2023-03-01T09:30:49;27.85;;;15.38;;
44987;SDS011;35735;52.226;21.254;2023-03-01T09:35:50;26.00;;;16.27;;
44987;SDS011;35735;52.226;21.254;2023-03-01T09:41:00;27.25;;;15.55;;
44987;SDS011;35735;52.226;21.254;2023-03-01T09:46:03;27.37;;;15.80;;
44987;SDS011;35735;52.226;21.254;2023-03-01T09:51:09;28.85;;;15.68;;
44987;SDS011;35735;52.226;21.254;2023-03-01T09:56:19;23.40;;;14.38;;
44987;SDS011;35735;52.226;21.254;2023-03-01T10:06:34;25.15;;;13.82;;
44987;SDS011;35735;52.226;21.254;2023-03-01T10:11:38;29.50;;;15.77;;
44987;SDS011;35735;52.226;21.254;2023-03-01T10:16:57;27.15;;;15.40;;
44987;SDS011;35735;52.226;21.254;2023-03-01T10:22:26;26.60;;;15.98;;
44987;SDS011;35735;52.226;21.254;2023-03-01T10:38:26;26.42;;;14.98;;
44987;SDS011;35735;52.226;21.254;2023-03-01T10:43:40;24.45;;;13.88;;
44987;SDS011;35735;52.226;21.254;2023-03-01T11:00:22;21.90;;;13.57;;
44987;SDS011;35735;52.226;21.254;2023-03-01T11:05:26;21.17;;;13.40;;
44987;SDS011;35735;52.226;21.254;2023-03-01T11:10:28;25.12;;;16.15;;
44987;SDS011;35735;52.226;21.254;2023-03-01T11:15:32;27.02;;;16.85;;
44987;SDS011;35735;52.226;21.254;2023-03-01T11:20:36;25.85;;;16.62;;
44987;SDS011;35735;52.226;21.254;2023-03-01T11:25:42;23.55;;;14.93;;
44987;SDS011;35735;52.226;21.254;2023-03-01T11:36:10;22.58;;;13.90;;
44987;SDS011;35735;52.226;21.254;2023-03-01T11:41:31;25.67;;;13.82;;
44987;SDS011;35735;52.226;21.254;2023-03-01T12:19:53;24.27;;;13.85;;
44987;SDS011;35735;52.226;21.254;2023-03-01T12:57:42;13.95;;;9.57;;
44987;SDS011;35735;52.226;21.254;2023-03-01T13:03:02;17.05;;;9.95;;
44987;SDS011;35735;52.226;21.254;2023-03-01T13:13:31;16.05;;;10.40;;
44987;SDS011;35735;52.226;21.254;2023-03-01T13:18:32;16.00;;;10.63;;
44987;SDS011;35735;52.226;21.254;2023-03-01T13:23:34;14.10;;;9.73;;
44987;SDS011;35735;52.226;21.254;2023-03-01T13:33:40;18.42;;;11.30;;
44987;SDS011;35735;52.226;21.254;2023-03-01T13:43:55;15.32;;;10.32;;
44987;SDS011;35735;52.226;21.254;2023-03-01T13:48:56;17.98;;;11.60;;
44987;SDS011;35735;52.226;21.254;2023-03-01T13:53:57;18.15;;;10.93;;
44987;SDS011;35735;52.226;21.254;2023-03-01T13:59:01;18.83;;;11.88;;
44987;SDS011;35735;52.226;21.254;2023-03-01T14:04:20;20.60;;;13.15;;
44987;SDS011;35735;52.226;21.254;2023-03-01T14:09:26;19.65;;;12.32;;
44987;SDS011;35735;52.226;21.254;2023-03-01T14:19:40;18.15;;;11.55;;
44987;SDS011;35735;52.226;21.254;2023-03-01T14:24:46;21.05;;;14.10;;
44987;SDS011;35735;52.226;21.254;2023-03-01T14:30:00;23.77;;;13.48;;
44987;SDS011;35735;52.226;21.254;2023-03-01T14:35:18;20.60;;;13.93;;
44987;SDS011;35735;52.226;21.254;2023-03-01T14:45:25;20.55;;;14.27;;
44987;SDS011;35735;52.226;21.254;2023-03-01T14:50:30;22.25;;;13.80;;
44987;SDS011;35735;52.226;21.254;2023-03-01T14:55:33;25.80;;;15.07;;
44987;SDS011;35735;52.226;21.254;2023-03-01T15:00:37;22.25;;;13.77;;
44987;SDS011;35735;52.226;21.254;2023-03-01T15:05:39;23.38;;;14.00;;
44987;SDS011;35735;52.226;21.254;2023-03-01T15:10:55;25.42;;;15.15;;
44987;SDS011;35735;52.226;21.254;2023-03-01T15:16:01;26.90;;;15.15;;
44987;SDS011;35735;52.226;21.254;2023-03-01T15:21:13;27.95;;;15.27;;
44987;SDS011;35735;52.226;21.254;2023-03-01T15:26:25;27.48;;;15.18;;
44987;SDS011;35735;52.226;21.254;2023-03-01T15:31:31;25.95;;;14.50;;
44987;SDS011;35735;52.226;21.254;2023-03-01T15:41:48;25.85;;;15.95;;
44987;SDS011;35735;52.226;21.254;2023-03-01T15:46:48;23.67;;;15.15;;
44987;SDS011;35735;52.226;21.254;2023-03-01T15:51:49;25.85;;;16.10;;
44987;SDS011;35735;52.226;21.254;2023-03-01T15:56:49;27.95;;;16.48;;
44987;SDS011;35735;52.226;21.254;2023-03-01T16:01:50;25.77;;;15.90;;
44987;SDS011;35735;52.226;21.254;2023-03-01T16:06:51;25.85;;;15.52;;
44987;SDS011;35735;52.226;21.254;2023-03-01T16:11:53;25.08;;;15.30;;
44987;SDS011;35735;52.226;21.254;2023-03-01T16:16:54;31.95;;;15.88;;
44987;SDS011;35735;52.226;21.254;2023-03-01T16:21:55;30.98;;;17.58;;
44987;SDS011;35735;52.226;21.254;2023-03-01T16:26:55;29.83;;;18.05;;
44987;SDS011;35735;52.226;21.254;2023-03-01T16:31:56;27.50;;;18.62;;
44987;SDS011;35735;52.226;21.254;2023-03-01T16:36:56;29.20;;;18.50;;
44987;SDS011;35735;52.226;21.254;2023-03-01T16:41:59;25.12;;;16.70;;
44987;SDS011;35735;52.226;21.254;2023-03-01T16:47:00;25.02;;;16.08;;
44987;SDS011;35735;52.226;21.254;2023-03-01T16:52:01;31.15;;;17.23;;
44987;SDS011;35735;52.226;21.254;2023-03-01T16:57:01;27.83;;;17.80;;
44987;SDS011;35735;52.226;21.254;2023-03-01T17:02:02;30.35;;;17.95;;
44987;SDS011;35735;52.226;21.254;2023-03-01T17:07:03;34.15;;;19.75;;
44987;SDS011;35735;52.226;21.254;2023-03-01T17:12:04;36.78;;;19.05;;
44987;SDS011;35735;52.226;21.254;2023-03-01T17:17:04;32.28;;;19.60;;
44987;SDS011;35735;52.226;21.254;2023-03-01T17:22:05;28.77;;;19.52;;
44987;SDS011;35735;52.226;21.254;2023-03-01T17:27:07;31.85;;;20.15;;
44987;SDS011;35735;52.226;21.254;2023-03-01T17:32:08;36.83;;;22.62;;
44987;SDS011;35735;52.226;21.254;2023-03-01T17:37:09;39.08;;;23.50;;
44987;SDS011;35735;52.226;21.254;2023-03-01T17:42:09;39.13;;;22.95;;
44987;SDS011;35735;52.226;21.254;2023-03-01T17:47:10;39.75;;;24.35;;
44987;SDS011;35735;52.226;21.254;2023-03-01T17:52:10;56.97;;;30.73;;
44987;SDS011;35735;52.226;21.254;2023-03-01T17:57:11;60.83;;;33.47;;
44987;SDS011;35735;52.226;21.254;2023-03-01T18:02:12;68.82;;;33.20;;
44987;SDS011;35735;52.226;21.254;2023-03-01T18:07:12;54.35;;;31.60;;
44987;SDS011;35735;52.226;21.254;2023-03-01T18:12:13;54.58;;;29.77;;
44987;SDS011;35735;52.226;21.254;2023-03-01T18:17:14;51.08;;;28.45;;
44987;SDS011;35735;52.226;21.254;2023-03-01T18:22:14;48.28;;;28.10;;
44987;SDS011;35735;52.226;21.254;2023-03-01T18:27:15;50.65;;;28.10;;
44987;SDS011;35735;52.226;21.254;2023-03-01T18:32:16;50.58;;;27.87;;
44987;SDS011;35735;52.226;21.254;2023-03-01T18:37:17;49.78;;;28.75;;
44987;SDS011;35735;52.226;21.254;2023-03-01T18:42:17;55.40;;;31.48;;
44987;SDS011;35735;52.226;21.254;2023-03-01T18:47:18;59.50;;;34.63;;
44987;SDS011;35735;52.226;21.254;2023-03-01T18:52:19;66.25;;;37.85;;
44987;SDS011;35735;52.226;21.254;2023-03-01T18:57:19;60.25;;;35.65;;
44987;SDS011;35735;52.226;21.254;2023-03-01T19:02:20;64.07;;;35.40;;
44987;SDS011;35735;52.226;21.254;2023-03-01T19:07:21;64.10;;;34.47;;
44987;SDS011;35735;52.226;21.254;2023-03-01T19:12:21;70.60;;;39.22;;
44987;SDS011;35735;52.226;21.254;2023-03-01T19:17:22;72.25;;;39.45;;
44987;SDS011;35735;52.226;21.254;2023-03-01T19:22:23;71.82;;;38.53;;
44987;SDS011;35735;52.226;21.254;2023-03-01T19:27:26;77.78;;;38.60;;
44987;SDS011;35735;52.226;21.254;2023-03-01T19:32:26;74.00;;;39.47;;
44987;SDS011;35735;52.226;21.254;2023-03-01T19:37:27;75.55;;;39.10;;
44987;SDS011;35735;52.226;21.254;2023-03-01T19:42:28;66.70;;;36.63;;
44987;SDS011;35735;52.226;21.254;2023-03-01T19:47:29;72.32;;;37.47;;
44987;SDS011;35735;52.226;21.254;2023-03-01T19:52:29;78.18;;;37.47;;
44987;SDS011;35735;52.226;21.254;2023-03-01T19:57:30;81.90;;;39.55;;
44987;SDS011;35735;52.226;21.254;2023-03-01T20:02:30;84.03;;;37.90;;
44987;SDS011;35735;52.226;21.254;2023-03-01T20:07:32;81.20;;;39.92;;
44987;SDS011;35735;52.226;21.254;2023-03-01T20:12:34;79.47;;;40.67;;
44987;SDS011;35735;52.226;21.254;2023-03-01T20:17:35;78.85;;;40.55;;
44987;SDS011;35735;52.226;21.254;2023-03-01T20:22:36;75.00;;;40.38;;
44987;SDS011;35735;52.226;21.254;2023-03-01T20:27:37;79.45;;;42.67;;
44987;SDS011;35735;52.226;21.254;2023-03-01T20:32:37;74.07;;;39.33;;
44987;SDS011;35735;52.226;21.254;2023-03-01T20:37:38;84.43;;;43.75;;
44987;SDS011;35735;52.226;21.254;2023-03-01T20:42:38;102.70;;;51.28;;
44987;SDS011;35735;52.226;21.254;2023-03-01T20:47:39;102.62;;;53.25;;
44987;SDS011;35735;52.226;21.254;2023-03-01T20:52:40;103.30;;;50.85;;
44987;SDS011;35735;52.226;21.254;2023-03-01T20:57:40;101.95;;;50.85;;
44987;SDS011;35735;52.226;21.254;2023-03-01T21:02:41;95.57;;;49.45;;
44987;SDS011;35735;52.226;21.254;2023-03-01T21:07:41;93.35;;;48.97;;
44987;SDS011;35735;52.226;21.254;2023-03-01T21:12:42;93.40;;;47.60;;
44987;SDS011;35735;52.226;21.254;2023-03-01T21:17:42;99.62;;;48.70;;
44987;SDS011;35735;52.226;21.254;2023-03-01T21:22:43;98.22;;;48.58;;
44987;SDS011;35735;52.226;21.254;2023-03-01T21:27:43;109.60;;;50.72;;
44987;SDS011;35735;52.226;21.254;2023-03-01T21:32:44;111.07;;;52.47;;
44987;SDS011;35735;52.226;21.254;2023-03-01T21:37:45;114.62;;;50.10;;
44987;SDS011;35735;52.226;21.254;2023-03-01T21:42:45;106.97;;;50.17;;
44987;SDS011;35735;52.226;21.254;2023-03-01T21:47:46;121.25;;;54.03;;
44987;SDS011;35735;52.226;21.254;2023-03-01T21:52:46;144.90;;;61.47;;
44987;SDS011;35735;52.226;21.254;2023-03-01T21:57:47;154.23;;;62.40;;
44987;SDS011;35735;52.226;21.254;2023-03-01T22:02:48;128.73;;;54.70;;
44987;SDS011;35735;52.226;21.254;2023-03-01T22:07:49;140.43;;;57.30;;
44987;SDS011;35735;52.226;21.254;2023-03-01T22:12:49;105.95;;;50.90;;
44987;SDS011;35735;52.226;21.254;2023-03-01T22:17:50;114.72;;;52.00;;
44987;SDS011;35735;52.226;21.254;2023-03-01T22:22:51;95.10;;;45.65;;
44987;SDS011;35735;52.226;21.254;2023-03-01T22:27:51;103.07;;;47.05;;
44987;SDS011;35735;52.226;21.254;2023-03-01T22:32:52;90.50;;;45.70;;
44987;SDS011;35735;52.226;21.254;2023-03-01T22:37:52;94.82;;;45.65;;
44987;SDS011;35735;52.226;21.254;2023-03-01T22:42:53;91.95;;;43.87;;
44987;SDS011;35735;52.226;21.254;2023-03-01T22:47:53;83.30;;;44.88;;
44987;SDS011;35735;52.226;21.254;2023-03-01T22:52:54;97.43;;;46.05;;
44987;SDS011;35735;52.226;21.254;2023-03-01T22:57:55;80.35;;;44.15;;
44987;SDS011;35735;52.226;21.254;2023-03-01T23:02:55;79.47;;;44.25;;
44987;SDS011;35735;52.226;21.254;2023-03-01T23:07:56;83.35;;;44.22;;
44987;SDS011;35735;52.226;21.254;2023-03-01T23:12:56;76.78;;;43.05;;
44987;SDS011;35735;52.226;21.254;2023-03-01T23:17:57;82.03;;;43.22;;
44987;SDS011;35735;52.226;21.254;2023-03-01T23:22:57;71.57;;;40.78;;
44987;SDS011;35735;52.226;21.254;2023-03-01T23:27:58;74.97;;;42.15;;
44987;SDS011;35735;52.226;21.254;2023-03-01T23:32:59;71.80;;;40.50;;
44987;SDS011;35735;52.226;21.254;2023-03-01T23:37:59;76.40;;;42.15;;
44987;SDS011;35735;52.226;21.254;2023-03-01T23:43:00;71.30;;;40.95;;
44987;SDS011;35735;52.226;21.254;2023-03-01T23:48:00;78.22;;;41.28;;
44987;SDS011;35735;52.226;21.254;2023-03-01T23:53:01;70.87;;;39.58;;
44987;SDS011;35735;52.226;21.254;2023-03-01T23:58:02;75.72;;;40.17;;
